createdAt,value
2018-09-14T00:02:26.588Z,95.98
2018-09-14T00:05:02.679Z,95.68
2018-09-14T00:07:36.184Z,95.25
2018-09-14T00:10:09.904Z,94.93
2018-09-14T00:12:44.895Z,94.81
2018-09-14T00:15:16.644Z,94.58
2018-09-14T00:17:51.044Z,94.47
2018-09-14T00:20:23.974Z,94.64
2018-09-14T00:22:56.602Z,94.80
2018-09-14T00:25:30.092Z,94.84
2018-09-14T00:28:04.356Z,95.02
2018-09-14T00:30:36.884Z,95.39
2018-09-14T00:33:09.425Z,95.82
2018-09-14T00:35:42.480Z,96.06
2018-09-14T00:38:15.013Z,96.25
2018-09-14T00:40:47.592Z,96.35
2018-09-14T00:43:20.500Z,96.52
2018-09-14T00:45:53.150Z,96.64
2018-09-14T00:48:27.964Z,96.71
2018-09-14T00:51:00.780Z,96.48
2018-09-14T00:53:34.807Z,96.47
2018-09-14T00:56:07.463Z,96.42
2018-09-14T00:58:40.370Z,96.53
2018-09-14T01:01:13.557Z,96.49
2018-09-14T01:03:46.084Z,96.40
2018-09-14T01:06:19.292Z,96.41
2018-09-14T01:08:52.111Z,96.55
2018-09-14T01:11:25.613Z,96.38
2018-09-14T01:13:58.704Z,96.29
2018-09-14T01:16:31.216Z,96.17
2018-09-14T01:19:03.856Z,96.13
2018-09-14T01:21:36.736Z,96.21
2018-09-14T01:24:09.636Z,96.10
2018-09-14T01:26:42.783Z,96.06
2018-09-14T01:29:16.216Z,96.08
2018-09-14T01:31:48.836Z,96.01
2018-09-14T01:34:21.668Z,96.21
2018-09-14T01:36:55.857Z,96.15
2018-09-14T01:39:28.894Z,96.09
2018-09-14T01:42:01.467Z,96.06
2018-09-14T01:44:34.411Z,96.05
2018-09-14T01:47:07.052Z,96.05
2018-09-14T01:49:40.563Z,95.96
2018-09-14T01:52:13.339Z,96.14
2018-09-14T01:54:45.923Z,96.25
2018-09-14T01:57:19.020Z,96.19
2018-09-14T01:59:51.566Z,96.15
2018-09-14T02:02:24.176Z,96.14
2018-09-14T02:04:57.117Z,96.27
2018-09-14T02:07:32.311Z,96.14
2018-09-14T02:10:05.713Z,96.16
2018-09-14T02:12:38.292Z,96.08
2018-09-14T02:15:12.296Z,96.02
2018-09-14T02:17:45.380Z,95.96
2018-09-14T02:20:19.227Z,95.87
2018-09-14T02:22:51.940Z,95.77
2018-09-14T02:25:24.909Z,95.85
2018-09-14T02:27:57.456Z,95.74
2018-09-14T02:30:30.240Z,95.84
2018-09-14T02:33:03.205Z,96.22
2018-09-14T02:35:35.776Z,96.45
2018-09-14T02:38:08.390Z,96.44
2018-09-14T02:40:41.373Z,96.49
2018-09-14T02:43:13.990Z,96.65
2018-09-14T02:45:46.499Z,96.77
2018-09-14T02:48:19.775Z,96.74
2018-09-14T02:50:52.472Z,96.66
2018-09-14T02:53:25.877Z,96.66
2018-09-14T02:55:59.022Z,96.96
2018-09-14T02:58:32.488Z,97.04
2018-09-14T03:01:06.998Z,96.88
2018-09-14T03:03:39.896Z,96.72
2018-09-14T03:06:13.244Z,96.87
2018-09-14T03:08:45.916Z,96.83
2018-09-14T03:11:18.824Z,96.66
2018-09-14T03:13:51.404Z,96.58
2018-09-14T03:16:24.956Z,96.65
2018-09-14T03:18:58.169Z,96.57
2018-09-14T03:21:30.732Z,96.56
2018-09-14T03:24:04.004Z,96.64
2018-09-14T03:26:36.988Z,96.75
2018-09-14T03:29:09.580Z,96.75
2018-09-14T03:31:42.135Z,96.99
2018-09-14T03:34:15.567Z,97.07
2018-09-14T03:36:48.073Z,97.05
2018-09-14T03:39:21.298Z,96.98
2018-09-14T03:41:53.917Z,96.96
2018-09-14T03:44:26.468Z,96.81
2018-09-14T03:46:59.016Z,96.66
2018-09-14T03:49:31.857Z,96.38
2018-09-14T03:52:04.396Z,96.21
2018-09-14T03:54:37.786Z,96.06
2018-09-14T03:57:10.724Z,96.18
2018-09-14T03:59:43.126Z,96.40
2018-09-14T04:02:18.812Z,96.38
2018-09-14T04:04:52.828Z,96.38
2018-09-14T04:07:25.357Z,96.32
2018-09-14T04:09:58.021Z,96.11
2018-09-14T04:12:31.140Z,96.03
2018-09-14T04:15:05.213Z,95.98
2018-09-14T04:17:38.115Z,95.99
2018-09-14T04:20:11.646Z,95.79
2018-09-14T04:22:44.204Z,95.87
2018-09-14T04:25:17.037Z,95.85
2018-09-14T04:27:49.987Z,95.73
2018-09-14T04:30:22.624Z,95.63
2018-09-14T04:32:55.993Z,95.50
2018-09-14T04:35:28.812Z,95.53
2018-09-14T04:38:02.423Z,95.40
2018-09-14T04:40:34.977Z,95.33
2018-09-14T04:43:07.762Z,95.26
2018-09-14T04:45:40.957Z,95.25
2018-09-14T04:48:13.531Z,95.19
2018-09-14T04:50:46.157Z,95.08
2018-09-14T04:53:19.037Z,95.03
2018-09-14T04:55:53.348Z,95.03
2018-09-14T04:58:26.077Z,94.96
2018-09-14T05:00:59.097Z,95.04
2018-09-14T05:03:31.657Z,95.09
2018-09-14T05:06:05.211Z,95.24
2018-09-14T05:08:38.452Z,95.30
2018-09-14T05:11:11.042Z,95.27
2018-09-14T05:13:43.949Z,95.29
2018-09-14T05:16:17.213Z,95.40
2018-09-14T05:18:50.001Z,95.40
2018-09-14T05:21:22.741Z,95.44
2018-09-14T05:23:57.168Z,95.49
2018-09-14T05:26:29.549Z,95.46
2018-09-14T05:29:02.151Z,95.47
2018-09-14T05:31:35.036Z,95.48
2018-09-14T05:34:07.592Z,95.74
2018-09-14T05:36:41.223Z,95.78
2018-09-14T05:39:14.438Z,95.83
2018-09-14T05:41:48.480Z,95.86
2018-09-14T05:44:21.148Z,95.94
2018-09-14T05:46:54.322Z,96.05
2018-09-14T05:49:26.880Z,96.29
2018-09-14T05:52:00.749Z,96.31
2018-09-14T05:54:33.374Z,96.36
2018-09-14T05:57:06.016Z,96.44
2018-09-14T05:59:40.840Z,96.49
2018-09-14T06:02:13.540Z,96.62
2018-09-14T06:04:46.029Z,96.85
2018-09-14T06:07:19.125Z,97.07
2018-09-14T06:09:53.475Z,97.00
2018-09-14T06:12:26.135Z,97.07
2018-09-14T06:15:00.295Z,97.24
2018-09-14T06:17:33.896Z,97.43
2018-09-14T06:20:07.271Z,97.61
2018-09-14T06:22:41.441Z,97.75
2018-09-14T06:25:19.048Z,97.81
2018-09-14T06:27:52.016Z,97.83
2018-09-14T06:30:24.888Z,97.90
2018-09-14T06:32:58.117Z,97.99
2018-09-14T06:35:34.352Z,98.02
2018-09-14T06:38:07.333Z,98.06
2018-09-14T06:40:40.195Z,98.09
2018-09-14T06:43:13.193Z,98.12
2018-09-14T06:45:45.687Z,98.19
2018-09-14T06:48:20.740Z,98.22
2018-09-14T06:50:54.374Z,98.25
2018-09-14T06:53:27.785Z,98.32
2018-09-14T06:56:01.278Z,98.43
2018-09-14T06:58:35.948Z,98.51
2018-09-14T07:01:08.509Z,98.60
2018-09-14T07:03:42.189Z,98.65
2018-09-14T07:06:16.360Z,98.72
2018-09-14T07:08:50.573Z,98.82
2018-09-14T07:11:23.326Z,98.81
2018-09-14T07:13:58.949Z,98.85
2018-09-14T07:16:32.742Z,98.90
2018-09-14T07:19:05.605Z,99.00
2018-09-14T07:21:43.093Z,99.08
2018-09-14T07:24:15.656Z,99.17
2018-09-14T07:26:48.816Z,99.30
2018-09-14T07:29:23.400Z,99.37
2018-09-14T07:32:00.628Z,99.44
2018-09-14T07:34:33.652Z,99.48
2018-09-14T07:37:08.751Z,99.51
2018-09-14T07:39:48.023Z,99.57
2018-09-14T07:42:20.976Z,99.69
2018-09-14T07:44:55.157Z,99.85
2018-09-14T07:47:29.660Z,99.92
2018-09-14T07:50:05.824Z,99.99
2018-09-14T07:52:44.161Z,100.00
2018-09-14T07:55:16.764Z,99.94
2018-09-14T07:57:54.311Z,99.91
2018-09-14T08:00:26.949Z,99.87
2018-09-14T08:02:59.968Z,99.75
2018-09-14T08:05:34.069Z,99.80
2018-09-14T08:08:07.909Z,100.00
2018-09-14T08:10:40.400Z,100.00
2018-09-14T08:13:14.596Z,98.83
2018-09-14T08:15:47.136Z,96.58
2018-09-14T08:18:21.803Z,93.78
2018-09-14T08:20:55.565Z,93.07
2018-09-14T08:23:32.228Z,92.59
2018-09-14T08:26:07.744Z,90.56
2018-09-14T08:28:42.754Z,88.86
2018-09-14T08:31:24.048Z,87.91
2018-09-14T08:33:59.460Z,84.85
2018-09-14T08:36:32.769Z,84.27
2018-09-14T08:39:12.195Z,82.90
2018-09-14T08:41:46.120Z,80.93
2018-09-14T08:44:19.032Z,80.87
2018-09-14T08:46:54.323Z,81.35
2018-09-14T08:49:33.596Z,79.46
2018-09-14T08:52:06.287Z,79.28
2018-09-14T08:54:39.642Z,78.05
2018-09-14T08:57:13.909Z,75.65
2018-09-14T08:59:49.285Z,74.47
2018-09-14T09:02:21.891Z,75.79
2018-09-14T09:04:55.288Z,73.16
2018-09-14T09:07:28.616Z,73.25
2018-09-14T09:10:01.229Z,73.54
2018-09-14T09:12:36.013Z,72.16
2018-09-14T09:15:19.629Z,70.97
2018-09-14T09:17:54.597Z,71.77
2018-09-14T09:20:29.452Z,69.92
2018-09-14T09:23:03.467Z,68.62
2018-09-14T09:25:37.712Z,68.78
2018-09-14T09:28:11.633Z,69.80
2018-09-14T09:30:46.009Z,68.67
2018-09-14T09:33:19.418Z,67.98
2018-09-14T09:35:54.287Z,68.51
2018-09-14T09:38:29.104Z,67.58
2018-09-14T09:41:03.156Z,67.91
2018-09-14T09:43:37.022Z,67.06
2018-09-14T09:46:10.401Z,66.93
2018-09-14T09:48:43.056Z,66.43
2018-09-14T09:51:16.148Z,65.87
2018-09-14T09:53:49.859Z,64.39
2018-09-14T09:56:22.420Z,64.49
2018-09-14T09:58:55.216Z,63.76
2018-09-14T10:01:33.176Z,62.82
2018-09-14T10:04:13.780Z,61.41
2018-09-14T10:06:48.019Z,59.84
2018-09-14T10:09:21.479Z,60.75
2018-09-14T10:11:55.996Z,60.12
2018-09-14T10:14:32.453Z,59.61
2018-09-14T10:17:10.481Z,60.29
2018-09-14T10:19:44.740Z,59.09
2018-09-14T10:22:21.343Z,59.07
2018-09-14T10:24:54.900Z,58.58
2018-09-14T10:27:28.222Z,57.96
2018-09-14T10:30:00.756Z,55.66
2018-09-14T10:32:38.825Z,54.69
2018-09-14T10:35:13.383Z,54.28
2018-09-14T10:37:47.305Z,52.96
2018-09-14T10:40:24.790Z,53.32
2018-09-14T10:42:57.792Z,53.21
2018-09-14T10:45:31.617Z,53.12
2018-09-14T10:48:06.014Z,52.24
2018-09-14T10:50:43.575Z,52.54
2018-09-14T10:53:20.034Z,53.44
2018-09-14T10:55:52.599Z,53.71
2018-09-14T10:58:41.156Z,52.22
2018-09-14T11:01:15.612Z,51.14
2018-09-14T11:03:49.984Z,51.25
2018-09-14T11:06:25.633Z,51.46
2018-09-14T11:08:59.911Z,50.43
2018-09-14T11:11:33.700Z,49.09
2018-09-14T11:14:12.540Z,49.39
2018-09-14T11:16:46.939Z,50.95
2018-09-14T11:19:21.029Z,52.11
2018-09-14T11:21:53.608Z,53.06
2018-09-14T11:24:27.590Z,53.47
2018-09-14T11:27:00.284Z,52.86
2018-09-14T11:29:33.773Z,53.39
2018-09-14T11:32:09.501Z,52.96
2018-09-14T11:34:44.045Z,52.71
2018-09-14T11:37:18.358Z,51.93
2018-09-14T11:39:53.345Z,51.86
2018-09-14T11:42:26.910Z,48.85
2018-09-14T11:45:02.683Z,46.74
2018-09-14T11:47:36.759Z,43.32
2018-09-14T11:50:10.650Z,42.71
2018-09-14T11:52:44.716Z,44.08
2018-09-14T11:55:17.625Z,44.79
2018-09-14T11:57:52.249Z,44.76
2018-09-14T12:00:26.238Z,46.73
2018-09-14T12:03:00.316Z,46.47
2018-09-14T12:05:35.535Z,46.83
2018-09-14T12:08:09.215Z,47.29
2018-09-14T12:10:43.196Z,45.80
2018-09-14T12:13:17.934Z,45.04
2018-09-14T12:16:08.668Z,43.60
2018-09-14T12:18:42.233Z,41.85
2018-09-14T12:21:17.319Z,40.77
2018-09-14T12:23:51.624Z,41.15
2018-09-14T12:26:26.372Z,41.18
2018-09-14T12:28:59.635Z,40.22
2018-09-14T12:31:32.505Z,40.78
2018-09-14T12:34:05.284Z,40.53
2018-09-14T12:36:38.097Z,40.49
2018-09-14T12:39:11.592Z,40.47
2018-09-14T12:41:51.898Z,40.03
2018-09-14T12:44:27.318Z,41.06
2018-09-14T12:47:02.886Z,39.45
2018-09-14T12:49:39.324Z,39.03
2018-09-14T12:52:12.972Z,38.25
2018-09-14T12:54:47.487Z,38.37
2018-09-14T12:57:22.225Z,37.96
2018-09-14T12:59:55.829Z,38.27
2018-09-14T13:02:35.353Z,37.47
2018-09-14T13:05:09.453Z,35.27
2018-09-14T13:07:44.307Z,36.94
2018-09-14T13:10:17.317Z,36.57
2018-09-14T13:12:50.876Z,36.78
2018-09-14T13:15:25.113Z,37.03
2018-09-14T13:18:01.091Z,36.04
2018-09-14T13:20:34.719Z,36.51
2018-09-14T13:23:08.277Z,36.45
2018-09-14T13:25:42.782Z,35.93
2018-09-14T13:28:17.735Z,37.19
2018-09-14T13:30:51.670Z,36.51
2018-09-14T13:33:27.730Z,36.50
2018-09-14T13:36:00.939Z,37.00
2018-09-14T13:38:34.844Z,37.10
2018-09-14T13:41:14.068Z,36.10
2018-09-14T13:43:49.039Z,36.39
2018-09-14T13:46:24.804Z,35.59
2018-09-14T13:48:58.725Z,35.63
2018-09-14T13:51:31.816Z,37.11
2018-09-14T13:54:04.658Z,37.87
2018-09-14T13:56:38.814Z,38.47
2018-09-14T13:59:12.980Z,39.13
2018-09-14T14:01:45.818Z,39.20
2018-09-14T14:04:21.987Z,38.34
2018-09-14T14:06:57.280Z,38.96
2018-09-14T14:09:30.326Z,39.20
2018-09-14T14:12:03.857Z,38.86
2018-09-14T14:14:42.713Z,37.78
2018-09-14T14:17:19.256Z,37.38
2018-09-14T14:19:53.763Z,36.70
2018-09-14T14:22:28.121Z,36.38
2018-09-14T14:25:01.132Z,35.28
2018-09-14T14:27:33.778Z,35.73
2018-09-14T14:30:08.597Z,35.81
2018-09-14T14:32:43.923Z,36.48
2018-09-14T14:35:18.120Z,36.51
2018-09-14T14:37:54.733Z,36.93
2018-09-14T14:40:27.277Z,36.86
2018-09-14T14:42:59.947Z,36.92
2018-09-14T14:45:33.155Z,36.21
2018-09-14T14:48:06.830Z,36.67
2018-09-14T14:50:40.937Z,36.41
2018-09-14T14:53:15.728Z,35.61
2018-09-14T14:55:49.745Z,34.39
2018-09-14T14:58:23.647Z,34.91
2018-09-14T15:00:58.257Z,34.51
2018-09-14T15:03:32.349Z,34.63
2018-09-14T15:06:05.956Z,34.25
2018-09-14T15:08:38.548Z,34.34
2018-09-14T15:11:11.560Z,33.96
2018-09-14T15:13:45.246Z,33.48
2018-09-14T15:16:18.177Z,33.35
2018-09-14T15:18:54.371Z,33.37
2018-09-14T15:21:27.681Z,33.54
2018-09-14T15:24:02.776Z,33.59
2018-09-14T15:26:44.621Z,33.76
2018-09-14T15:29:20.532Z,32.42
2018-09-14T15:31:56.309Z,32.56
2018-09-14T15:34:28.983Z,32.73
2018-09-14T15:37:05.479Z,32.97
2018-09-14T15:39:38.162Z,33.16
2018-09-14T15:42:11.152Z,33.15
2018-09-14T15:44:45.017Z,32.89
2018-09-14T15:47:19.116Z,32.37
2018-09-14T15:49:52.305Z,32.52
2018-09-14T15:52:24.923Z,32.77
2018-09-14T15:55:00.389Z,32.66
2018-09-14T15:57:33.415Z,32.58
2018-09-14T16:00:07.853Z,32.46
2018-09-14T16:02:40.560Z,32.34
2018-09-14T16:05:13.272Z,32.90
2018-09-14T16:07:48.205Z,33.46
2018-09-14T16:10:21.765Z,33.57
2018-09-14T16:12:55.348Z,33.91
2018-09-14T16:15:27.974Z,34.82
2018-09-14T16:18:00.790Z,34.92
2018-09-14T16:20:34.364Z,35.62
2018-09-14T16:23:08.088Z,35.49
2018-09-14T16:25:41.857Z,35.54
2018-09-14T16:28:15.601Z,36.14
2018-09-14T16:30:48.105Z,35.87
2018-09-14T16:33:23.469Z,36.14
2018-09-14T16:35:57.446Z,36.19
2018-09-14T16:38:34.076Z,36.44
2018-09-14T16:41:09.204Z,36.45
2018-09-14T16:43:44.468Z,36.49
2018-09-14T16:46:19.318Z,37.21
2018-09-14T16:48:54.557Z,37.99
2018-09-14T16:51:27.900Z,38.47
2018-09-14T16:54:03.943Z,39.30
2018-09-14T16:56:37.068Z,39.42
2018-09-14T16:59:12.285Z,39.89
2018-09-14T17:01:46.388Z,40.23
2018-09-14T17:04:21.372Z,40.48
2018-09-14T17:06:55.384Z,40.66
2018-09-14T17:09:31.375Z,40.68
2018-09-14T17:12:09.562Z,40.91
2018-09-14T17:14:42.236Z,40.95
2018-09-14T17:17:14.753Z,41.23
2018-09-14T17:19:48.363Z,41.66
2018-09-14T17:22:21.524Z,41.95
2018-09-14T17:24:59.321Z,42.21
2018-09-14T17:27:33.397Z,42.85
2018-09-14T17:30:08.619Z,43.47
2018-09-14T17:32:42.841Z,43.92
2018-09-14T17:35:17.949Z,44.11
2018-09-14T17:37:52.099Z,44.42
2018-09-14T17:40:27.972Z,44.95
2018-09-14T17:43:00.629Z,45.44
2018-09-14T17:45:35.676Z,45.98
2018-09-14T17:48:10.902Z,46.76
2018-09-14T17:50:49.695Z,47.02
2018-09-14T17:53:23.954Z,47.36
2018-09-14T17:55:57.038Z,47.74
2018-09-14T17:58:31.816Z,47.79
2018-09-14T18:01:07.270Z,48.33
2018-09-14T18:03:40.890Z,49.45
2018-09-14T18:06:18.114Z,50.13
2018-09-14T18:08:55.732Z,50.73
2018-09-14T18:11:30.848Z,51.08
2018-09-14T18:14:08.522Z,52.12
2018-09-14T18:16:43.640Z,53.20
2018-09-14T18:19:18.807Z,53.49
2018-09-14T18:21:57.665Z,54.27
2018-09-14T18:24:35.621Z,57.08
2018-09-14T18:27:10.625Z,56.92
2018-09-14T18:29:47.031Z,57.02
2018-09-14T18:32:21.327Z,58.42
2018-09-14T18:34:54.733Z,59.18
2018-09-14T18:37:30.159Z,58.90
2018-09-14T18:40:04.179Z,59.15
2018-09-14T18:42:40.557Z,59.42
2018-09-14T18:45:18.251Z,59.68
2018-09-14T18:47:51.589Z,60.71
2018-09-14T18:50:27.417Z,60.59
2018-09-14T18:53:02.381Z,60.55
2018-09-14T18:55:35.693Z,61.17
2018-09-14T18:58:11.706Z,61.69
2018-09-14T19:00:53.587Z,62.12
2018-09-14T19:03:31.075Z,62.77
2018-09-14T19:06:06.048Z,62.68
2018-09-14T19:08:44.811Z,63.19
2018-09-14T19:11:22.761Z,63.04
2018-09-14T19:13:58.906Z,65.24
2018-09-14T19:16:33.949Z,64.78
2018-09-14T19:19:07.635Z,65.16
2018-09-14T19:21:44.399Z,65.41
2018-09-14T19:24:18.576Z,66.10
2018-09-14T19:26:51.177Z,66.18
2018-09-14T19:29:31.733Z,66.47
2018-09-14T19:32:07.850Z,66.69
2018-09-14T19:34:43.719Z,66.78
2018-09-14T19:37:23.899Z,66.90
2018-09-14T19:39:57.325Z,67.83
2018-09-14T19:42:30.795Z,67.78
2018-09-14T19:45:07.466Z,68.21
2018-09-14T19:47:43.385Z,70.26
2018-09-14T19:50:16.312Z,70.75
2018-09-14T19:52:49.546Z,70.26
2018-09-14T19:55:26.561Z,70.62
2018-09-14T19:58:03.058Z,70.00
2018-09-14T20:00:40.819Z,69.96
2018-09-14T20:03:15.485Z,70.13
2018-09-14T20:05:51.709Z,70.31
2018-09-14T20:08:28.697Z,70.78
2018-09-14T20:11:02.741Z,71.20
2018-09-14T20:13:40.412Z,71.52
2018-09-14T20:16:14.987Z,72.08
2018-09-14T20:18:52.119Z,73.36
2018-09-14T20:21:26.278Z,73.09
2018-09-14T20:24:01.235Z,73.69
2018-09-14T20:26:35.388Z,74.90
2018-09-14T20:29:12.668Z,74.21
2018-09-14T20:31:47.097Z,74.33
2018-09-14T20:34:20.317Z,74.26
2018-09-14T20:36:54.445Z,73.96
2018-09-14T20:39:27.309Z,73.89
2018-09-14T20:41:59.814Z,74.63
2018-09-14T20:44:34.679Z,74.63
2018-09-14T20:47:16.036Z,74.66
2018-09-14T20:49:50.892Z,74.91
2018-09-14T20:52:27.062Z,74.63
2018-09-14T20:54:59.701Z,74.34
2018-09-14T20:57:33.653Z,74.36
2018-09-14T21:00:09.174Z,74.55
2018-09-14T21:02:43.828Z,74.50
2018-09-14T21:05:17.286Z,74.35
2018-09-14T21:07:51.984Z,74.09
2018-09-14T21:10:26.904Z,73.81
2018-09-14T21:13:01.743Z,73.74
2018-09-14T21:15:36.550Z,73.97
2018-09-14T21:18:09.697Z,74.29
2018-09-14T21:20:44.353Z,74.75
2018-09-14T21:23:18.127Z,74.92
2018-09-14T21:25:52.732Z,75.05
2018-09-14T21:28:27.646Z,74.81
2018-09-14T21:31:03.988Z,73.34
2018-09-14T21:33:36.901Z,72.12
2018-09-14T21:36:10.033Z,71.92
2018-09-14T21:38:45.343Z,70.92
2018-09-14T21:41:24.402Z,70.79
2018-09-14T21:44:03.588Z,70.52
2018-09-14T21:46:38.648Z,70.29
2018-09-14T21:49:14.445Z,69.66
2018-09-14T21:51:46.937Z,69.32
2018-09-14T21:54:19.625Z,69.11
2018-09-14T21:56:54.698Z,68.75
2018-09-14T21:59:30.166Z,68.20
2018-09-14T22:02:08.828Z,67.90
2018-09-14T22:04:48.490Z,67.31
2018-09-14T22:07:23.708Z,67.05
2018-09-14T22:09:59.629Z,66.80
2018-09-14T22:12:35.149Z,66.50
2018-09-14T22:15:07.646Z,66.32
2018-09-14T22:17:44.161Z,66.18
2018-09-14T22:20:22.876Z,66.06
2018-09-14T22:22:56.600Z,65.87
2018-09-14T22:25:31.549Z,65.75
2018-09-14T22:28:06.603Z,65.80
2018-09-14T22:30:46.472Z,65.75
2018-09-14T22:33:21.917Z,65.64
2018-09-14T22:35:55.820Z,65.57
2018-09-14T22:38:29.280Z,65.54
2018-09-14T22:41:02.671Z,65.55
2018-09-14T22:43:35.642Z,65.49
2018-09-14T22:46:10.485Z,65.35
2018-09-14T22:48:47.020Z,65.18
2018-09-14T22:51:19.891Z,64.96
2018-09-14T22:53:52.506Z,64.88
2018-09-14T22:56:25.321Z,65.03
2018-09-14T22:58:57.876Z,65.10
2018-09-14T23:01:36.490Z,64.93
2018-09-14T23:04:10.191Z,64.96
2018-09-14T23:06:42.804Z,65.13
2018-09-14T23:09:16.745Z,65.28
2018-09-14T23:11:50.973Z,65.32
2018-09-14T23:14:24.483Z,65.47
2018-09-14T23:17:00.969Z,65.63
2018-09-14T23:19:33.611Z,65.73
2018-09-14T23:22:08.666Z,65.85
2018-09-14T23:24:43.032Z,65.89
2018-09-14T23:27:16.134Z,65.98
2018-09-14T23:29:48.811Z,65.94
2018-09-14T23:32:22.714Z,65.61
2018-09-14T23:34:55.400Z,65.63
2018-09-14T23:37:30.976Z,65.68
2018-09-14T23:40:06.466Z,65.87
2018-09-14T23:42:41.500Z,66.05
2018-09-14T23:45:18.934Z,66.17
2018-09-14T23:47:52.764Z,67.79
2018-09-14T23:50:26.936Z,67.86
2018-09-14T23:53:00.034Z,68.47
2018-09-14T23:55:34.668Z,69.45
2018-09-14T23:58:11.337Z,69.86
